This is the latest recevied weather packets stored in our database for station/object KM4KBD. If no packets are shown the sender has not sent any weather packets the latest 10 day(s).
| Time | Temp. | Humidity | Pressure | Rain* | Wind** | Luminosity | Snow |
|---|---|---|---|---|---|---|---|
| 1777404079 | 23.33° C | 72% | 1021.4 hPa | 0 mm | - | 772 W/m² | - |
| 1777403774 | 22.78° C | 76% | 1021.5 hPa | 0 mm | - | 342 W/m² | - |
| 1777403174 | 22.78° C | 77% | 1021.5 hPa | 0 mm | - | 135 W/m² | - |
| 1777401355 | 22.22° C | 79% | 1021.7 hPa | 0 mm | - | 814 W/m² | - |
| 1777401050 | 22.22° C | 78% | 1021.9 hPa | 0 mm | - | 414 W/m² | - |
| 1777400443 | 21.67° C | 80% | 1022.1 hPa | 0 mm | - | 910 W/m² | - |
| 1777400138 | 21.67° C | 81% | 1022.4 hPa | 0 mm | - | 360 W/m² | - |
| 1777399835 | 21.11° C | 82% | 1021.9 hPa | 0 mm | - | 357 W/m² | - |
| 1777399533 | 20.56° C | 86% | 1022.4 hPa | 0 mm | - | 805 W/m² | - |
| 1777399230 | 20.56° C | 86% | 1022.4 hPa | 0 mm | - | 314 W/m² | - |
| 1777398927 | 20° C | 88% | 1022.3 hPa | 0 mm | - | 242 W/m² | - |
| 1777397410 | 19.44° C | 90% | 1022.4 hPa | 0 mm | - | 86 W/m² | - |
| 1777396803 | 19.44° C | 89% | 1022.7 hPa | 0 mm | - | 89 W/m² | - |
| 1777396196 | 19.44° C | 87% | 1022.8 hPa | 0 mm | - | 129 W/m² | - |
| 1777395588 | 19.44° C | 86% | 1022.9 hPa | 0 mm | - | 118 W/m² | - |
| 1777394071 | 18.89° C | 89% | 1022.7 hPa | 0 mm | - | 156 W/m² | - |
| 1777393767 | 18.89° C | 89% | 1022.6 hPa | 0 mm | - | 112 W/m² | - |
| 1777393466 | 18.89° C | 89% | 1022.6 hPa | 0 mm | - | 94 W/m² | - |
| 1777390730 | 18.89° C | 88% | 1022.7 hPa | 0 mm | - | 67 W/m² | - |
| 1777389214 | 17.78° C | 96% | 1022.6 hPa | 0 mm | - | 102 W/m² | - |
| 1777388912 | 17.22° C | 99% | 1022.4 hPa | 0 mm | - | 102 W/m² | - |
| 1777387097 | 16.67° C | 99% | 1022.3 hPa | 0 mm | - | 156 W/m² | - |
| 1777384372 | 16.11° C | 99% | 1021.5 hPa | 0 mm | - | 106 W/m² | - |
| 1777383455 | 16.67° C | 99% | 1021.3 hPa | 0 mm | - | 101 W/m² | - |
| 1777383151 | 16.67° C | 99% | 1021.4 hPa | 0 mm | - | 107 W/m² | - |
* Rain latest hour (hover to see other rain measurements)
** Current wind speed in m/s (hover to see current wind gust speed)